Strafford, MO (65757)

3:11 PM CDT on August 30, 2014 (GMT -0500)
Northview, MO - Mill Dam Road | Change Station
CLOSE
Current Station
Personal Weather Station
Location: Marshfield, MO
Elevation: 1345 ft
Nearby Weather Stations

Elev 1345 ft 37.27 °N, 93.01 °W | Updated 43 seconds ago

Partly Cloudy
Partly Cloudy
86.7 °F
Feels Like 93 °F
N
2.0
Wind Variable Wind from SSW
Gusts 2.0 mph

Today
High -- | Low -- °F
--% Chance of Precip.
Yesterday
High -- | Low -- °F
Precip. -- in
6:41 AM 7:44 PM
Waxing Crescent, 24% visible
Pressure 29.88 in
Visibility 10.0 miles
Clouds Few 4600 ft
Scattered Clouds 6000 ft
Heat Index 93 °F
Dew Point 72 °F
Humidity 62%
Rainfall 0.05 in
Snow Depth Not available.
UV 7 out of 12
Pollen 10.00 out of 12
Ozone Good
PM2.5 Good
Flu Activity Not available.
METAR KSGF 301952Z 24009KT 10SM VCTS FEW046 SCT060 32/18 A2992 RMK AO2 LTG DSNT NE AND S SLP116 T03170183

More Conditions Fewer Conditions

Pressure 29.88 in
Visibility 10.0 miles
Clouds Few 4600 ft
Scattered Clouds 6000 ft
Heat Index 93 °F
Dew Point 72 °F
Humidity 62%
Rainfall 0.05 in
Snow Depth Not available.
UV 7 out of 12
Pollen 10.00 out of 12
Ozone Good
PM2.5 Good
Flu Activity Not available.
METAR KSGF 301952Z 24009KT 10SM VCTS FEW046 SCT060 32/18 A2992 RMK AO2 LTG DSNT NE AND S SLP116 T03170183

More Conditions Fewer Conditions

10-Day Weather Forecast

Almanac

Astronomy

Aug. 30, 2014 Rise Set
Actual Time 6:41 AM CDT 7:44 PM CDT
Civil Twilight 6:14 AM CDT 8:10 PM CDT
Nautical Twilight 5:42 AM CDT 8:42 PM CDT
Astronomical Twilight 5:09 AM CDT 9:15 PM CDT
Moon 11:22 AM CDT 10:26 PM CDT
Length of Visible Light 13h 56m
Length of Day
13h 02m
Tomorrow will be 2m 16s shorter.
Waxing Crescent, 24% of the Moon is Illuminated
Today
Waxing Crescent
Sep 2
First Quarter
Sep 8
Full
Sep 15
Last Quarter
Sep 24
New

Today's Extremes

State Highs State Lows

Community

WunderPhotos

Upload Photos

1,748,622 photos uploaded!

WunderBlogs® & News

Nearby

Air Quality

  Air Quality AQ Index Pollutant
Yesterday Good
PM10
Yesterday Good
OZONE
Current Good
OZONE
Current Good
PM2.5
Saturday Good
OZONE
Saturday Good
PM2.5
Sunday Good
OZONE
Sunday Good
PM2.5
Monday Good
OZONE
Monday Good
PM2.5
Tuesday Good
OZONE
Tuesday Good
PM2.5
Wednesday Good
OZONE
Wednesday Good
PM2.5
Thursday Good
OZONE
Thursday Good
PM2.5

Snow Depth

Station Depth Elevation
No new snow has been reported.

Earthquake Activity

City Distance Mag. Time & Date
No recent earthquake activity has been reported nearby.
Minimum magnitude displayed is 2.5.

Coastal Water Temperatures

Place Temperature
No Stations Reporting

Nearby Weather Stations